Time;durP1;ratioP1;P1;durP2;ratioP2;P2;SDS_P1;SDS_P2;PMS_P1;PMS_P2;Temp;Humidity;BMP_temperature;BMP_pressure;BME280_temperature;BME280_humidity;BME280_pressure;Samples;Min_cycle;Max_cycle;Signal;HPM_P1;HPM_P2
2021/10/16 00:00:15;;;;;;;9.55;7.47;;;11.10;66.70;;;;;;4994932;28;20124;-51
2021/10/16 00:02:41;;;;;;;10.82;6.95;;;11.10;66.60;;;;;;4996492;28;20030;-51
2021/10/16 00:05:07;;;;;;;11.82;7.97;;;11.20;66.60;;;;;;4994192;28;20550;-51
2021/10/16 00:07:33;;;;;;;10.40;7.47;;;11.20;66.60;;;;;;4976972;28;20031;-51
2021/10/16 00:09:59;;;;;;;8.98;7.00;;;11.20;66.50;;;;;;4996004;28;20404;-51
2021/10/16 00:12:27;;;;;;;10.10;7.72;;;11.30;66.40;;;;;;4996207;28;20023;-51
2021/10/16 00:14:53;;;;;;;10.00;7.63;;;11.30;66.40;;;;;;4996246;28;20036;-51
2021/10/16 00:17:18;;;;;;;9.23;7.38;;;11.30;66.40;;;;;;4996258;28;20022;-51
2021/10/16 00:19:44;;;;;;;9.25;7.18;;;11.30;66.30;;;;;;4996130;28;20022;-51
2021/10/16 00:22:10;;;;;;;11.05;8.15;;;11.30;66.30;;;;;;4995990;28;20034;-51
2021/10/16 00:24:36;;;;;;;10.43;7.65;;;11.40;66.30;;;;;;4977693;28;20463;-52
2021/10/16 00:27:02;;;;;;;11.50;7.88;;;11.40;66.30;;;;;;4976834;28;20113;-51
2021/10/16 00:29:28;;;;;;;9.18;7.55;;;11.40;66.10;;;;;;4989978;28;20023;-51
2021/10/16 00:31:54;;;;;;;10.43;7.65;;;11.40;66.20;;;;;;4995849;28;20425;-51
2021/10/16 00:34:20;;;;;;;9.63;7.55;;;11.40;66.10;;;;;;4996120;28;20101;-51
2021/10/16 00:36:46;;;;;;;11.27;8.18;;;11.40;66.10;;;;;;4995873;28;20112;-51
2021/10/16 00:39:11;;;;;;;11.57;8.32;;;11.40;66.10;;;;;;4990368;28;20090;-51
2021/10/16 00:41:37;;;;;;;10.75;8.27;;;11.50;66.20;;;;;;4976412;28;20026;-51
2021/10/16 00:44:22;;;;;;;13.48;9.35;;;11.50;66.30;;;;;;4978118;28;20031;-51
2021/10/16 00:46:49;;;;;;;13.05;8.85;;;11.50;66.30;;;;;;4996733;28;20030;-51
2021/10/16 00:49:15;;;;;;;14.07;9.02;;;11.50;66.40;;;;;;4996378;28;20034;-51
2021/10/16 00:51:42;;;;;;;10.57;8.05;;;11.50;66.60;;;;;;4996229;28;20053;-51
2021/10/16 00:54:10;;;;;;;13.05;9.23;;;11.50;66.70;;;;;;4984490;28;20499;-51
2021/10/16 00:56:37;;;;;;;12.02;9.30;;;11.50;66.70;;;;;;4976790;28;20022;-51
2021/10/16 00:59:05;;;;;;;13.23;9.13;;;11.50;66.80;;;;;;4986827;28;20030;-51
2021/10/16 01:01:31;;;;;;;14.48;9.60;;;11.50;66.90;;;;;;4995875;28;20026;-51
2021/10/16 01:03:58;;;;;;;12.98;9.63;;;11.50;66.70;;;;;;4995970;28;20127;-51
2021/10/16 01:06:24;;;;;;;12.95;9.68;;;11.50;67.00;;;;;;4995401;28;20026;-51
2021/10/16 01:08:52;;;;;;;11.90;8.27;;;11.50;67.00;;;;;;4995835;28;20044;-52
2021/10/16 01:11:17;;;;;;;13.52;9.48;;;11.50;67.90;;;;;;4994411;28;20374;-51
2021/10/16 01:13:43;;;;;;;13.00;8.93;;;11.50;67.10;;;;;;4987338;28;20027;-51
2021/10/16 01:16:09;;;;;;;10.90;7.85;;;11.50;67.20;;;;;;4976483;28;20022;-51
2021/10/16 01:18:35;;;;;;;13.13;8.90;;;11.50;67.50;;;;;;4976336;28;20031;-51
2021/10/16 01:21:10;;;;;;;11.75;8.73;;;11.50;67.40;;;;;;4976428;28;20429;-52
2021/10/16 01:23:36;;;;;;;12.70;9.55;;;11.50;67.40;;;;;;4976122;28;20037;-51
2021/10/16 01:26:02;;;;;;;12.85;9.50;;;11.50;67.60;;;;;;4976383;28;20459;-52
2021/10/16 01:28:29;;;;;;;14.93;10.23;;;11.50;67.50;;;;;;4978055;28;20038;-52
2021/10/16 01:30:56;;;;;;;14.23;9.85;;;11.50;67.20;;;;;;4985194;28;20164;-51
2021/10/16 01:33:28;;;;;;;13.30;9.25;;;11.50;67.30;;;;;;4995660;28;20467;-51
2021/10/16 01:35:59;;;;;;;13.32;8.88;;;11.50;67.10;;;;;;4995347;28;20030;-51
2021/10/16 01:38:26;;;;;;;12.73;9.23;;;11.50;67.20;;;;;;4995339;28;20023;-51
2021/10/16 01:40:51;;;;;;;13.57;9.82;;;11.50;67.40;;;;;;4995064;28;20054;-51
2021/10/16 01:43:17;;;;;;;12.55;9.27;;;11.50;67.30;;;;;;4995143;28;20019;-51
2021/10/16 01:45:44;;;;;;;14.02;9.90;;;11.50;67.40;;;;;;4995292;28;20054;-53
2021/10/16 01:48:10;;;;;;;13.20;9.20;;;11.50;67.40;;;;;;4975755;28;20035;-51
2021/10/16 01:50:40;;;;;;;12.52;9.32;;;11.50;67.40;;;;;;4975961;28;20023;-51
2021/10/16 01:53:09;;;;;;;14.77;9.88;;;11.40;67.20;;;;;;4975814;28;20479;-51
2021/10/16 01:55:36;;;;;;;11.93;8.77;;;11.40;67.30;;;;;;4974650;28;20023;-52
2021/10/16 01:58:05;;;;;;;11.75;8.65;;;11.40;67.60;;;;;;4991296;28;20022;-51
2021/10/16 02:00:31;;;;;;;11.60;8.63;;;11.40;67.70;;;;;;4990619;28;20029;-51
2021/10/16 02:02:57;;;;;;;13.00;8.77;;;11.40;67.60;;;;;;4995252;28;20034;-51
2021/10/16 02:05:22;;;;;;;11.93;8.65;;;11.40;67.70;;;;;;4975723;28;20030;-51
2021/10/16 02:07:48;;;;;;;12.68;8.52;;;11.40;67.70;;;;;;4975390;28;20034;-51
2021/10/16 02:10:14;;;;;;;12.02;9.32;;;11.40;67.60;;;;;;4975339;28;20038;-51
2021/10/16 02:12:39;;;;;;;10.95;8.38;;;11.30;67.70;;;;;;4975249;28;20070;-51
2021/10/16 02:15:05;;;;;;;11.07;8.07;;;11.40;68.50;;;;;;4975335;28;20034;-51
2021/10/16 02:17:31;;;;;;;11.98;7.93;;;11.30;67.70;;;;;;4975196;28;20030;-51
2021/10/16 02:19:56;;;;;;;11.90;8.70;;;11.30;67.70;;;;;;4975254;28;20388;-51
2021/10/16 02:22:22;;;;;;;11.43;8.60;;;11.30;67.90;;;;;;4975252;28;20027;-51
2021/10/16 02:24:48;;;;;;;11.00;7.78;;;11.30;67.90;;;;;;4975340;28;20045;-51
2021/10/16 02:27:14;;;;;;;12.07;8.20;;;11.30;68.00;;;;;;4985064;28;20462;-51
2021/10/16 02:29:40;;;;;;;10.70;8.02;;;11.30;67.90;;;;;;4994524;28;20116;-51
2021/10/16 02:32:06;;;;;;;9.50;7.57;;;11.30;68.20;;;;;;4994836;28;20038;-51
2021/10/16 02:34:32;;;;;;;10.82;8.00;;;11.30;68.30;;;;;;4994597;28;20454;-51
2021/10/16 02:36:58;;;;;;;10.85;8.23;;;11.30;68.50;;;;;;4987873;28;20105;-51
2021/10/16 02:39:24;;;;;;;10.65;7.63;;;11.40;68.60;;;;;;4974348;28;20487;-51
2021/10/16 02:41:50;;;;;;;9.85;7.50;;;11.40;68.70;;;;;;4991140;28;20040;-51
2021/10/16 02:44:16;;;;;;;11.55;8.30;;;11.30;68.70;;;;;;4994010;28;20474;-51
2021/10/16 02:46:41;;;;;;;11.80;8.57;;;11.30;68.70;;;;;;4993738;28;20035;-51
2021/10/16 02:49:07;;;;;;;13.55;9.30;;;11.30;69.10;;;;;;4993872;28;20410;-51
2021/10/16 02:51:33;;;;;;;12.48;9.23;;;11.20;68.00;;;;;;4989605;28;20065;-51
2021/10/16 02:53:59;;;;;;;12.82;9.18;;;11.20;67.70;;;;;;4982594;28;20365;-51
2021/10/16 02:56:24;;;;;;;12.52;9.23;;;11.20;67.60;;;;;;4978968;28;20069;-51
2021/10/16 02:58:50;;;;;;;11.98;8.40;;;11.10;67.60;;;;;;4994375;28;20029;-51
2021/10/16 03:01:16;;;;;;;12.63;8.50;;;11.00;67.60;;;;;;4992885;28;20402;-51
2021/10/16 03:03:41;;;;;;;12.80;8.77;;;10.90;67.60;;;;;;4994454;28;20447;-51
2021/10/16 03:06:07;;;;;;;11.02;8.50;;;10.90;67.80;;;;;;4976626;28;20027;-52
2021/10/16 03:08:33;;;;;;;13.48;8.52;;;10.90;67.80;;;;;;4997453;28;20421;-51
2021/10/16 03:10:58;;;;;;;12.63;8.80;;;10.90;67.80;;;;;;4995121;28;20455;-51
2021/10/16 03:13:24;;;;;;;12.23;8.60;;;10.90;68.20;;;;;;4979603;28;20034;-51
2021/10/16 03:15:49;;;;;;;12.70;8.45;;;10.90;68.30;;;;;;4978567;28;20027;-51
2021/10/16 03:18:15;;;;;;;13.90;9.23;;;11.00;68.50;;;;;;4978466;28;20025;-51
2021/10/16 03:20:41;;;;;;;14.30;9.15;;;11.00;68.50;;;;;;4978419;28;20050;-51
2021/10/16 03:23:07;;;;;;;11.27;8.93;;;11.00;68.50;;;;;;4979357;28;20054;-51
2021/10/16 03:25:33;;;;;;;12.13;8.82;;;11.00;68.80;;;;;;4978434;28;20037;-51
2021/10/16 03:27:59;;;;;;;13.43;8.65;;;11.00;68.80;;;;;;4990347;28;20101;-51
2021/10/16 03:30:24;;;;;;;10.82;8.90;;;11.00;68.80;;;;;;4988323;28;20073;-51
2021/10/16 03:32:50;;;;;;;17.73;11.10;;;11.00;68.80;;;;;;4977946;28;20037;-51
2021/10/16 03:35:16;;;;;;;29.65;18.77;;;11.00;68.60;;;;;;4979048;28;20073;-51
2021/10/16 03:37:42;;;;;;;29.98;18.83;;;11.00;68.30;;;;;;4978447;28;20539;-51
2021/10/16 03:40:08;;;;;;;27.08;17.67;;;11.00;68.30;;;;;;4990812;28;20038;-51
2021/10/16 03:42:34;;;;;;;26.10;17.40;;;11.10;68.50;;;;;;4995780;28;20049;-51
2021/10/16 03:45:01;;;;;;;27.42;17.45;;;11.10;68.50;;;;;;4990174;28;20090;-52
2021/10/16 03:47:27;;;;;;;23.83;16.17;;;11.10;68.70;;;;;;4984819;28;20064;-51
2021/10/16 03:49:52;;;;;;;25.85;16.45;;;11.10;68.80;;;;;;4996963;28;20045;-51
2021/10/16 03:52:19;;;;;;;24.83;16.75;;;11.10;68.80;;;;;;4997124;28;20026;-51
2021/10/16 03:54:44;;;;;;;26.30;15.63;;;11.10;69.00;;;;;;4997653;28;20053;-51
2021/10/16 03:57:10;;;;;;;18.98;12.80;;;11.10;69.00;;;;;;4987135;28;20510;-51
2021/10/16 03:59:41;;;;;;;18.15;12.25;;;11.20;69.10;;;;;;4979036;28;20077;-51
2021/10/16 04:02:06;;;;;;;21.67;13.82;;;11.10;69.10;;;;;;4994294;28;20038;-51
2021/10/16 04:04:32;;;;;;;22.98;14.90;;;11.20;69.20;;;;;;4987600;28;20038;-52
2021/10/16 04:06:57;;;;;;;24.90;15.98;;;11.20;69.10;;;;;;4996768;28;20113;-51
2021/10/16 04:09:23;;;;;;;23.95;16.40;;;11.20;69.00;;;;;;4997111;28;20051;-51
2021/10/16 04:11:49;;;;;;;25.70;15.57;;;11.10;69.00;;;;;;4994732;28;20042;-52
2021/10/16 04:14:15;;;;;;;28.23;17.20;;;11.20;68.90;;;;;;4994339;28;20026;-51
2021/10/16 04:16:40;;;;;;;26.83;17.65;;;11.20;68.90;;;;;;4981135;28;20101;-51
2021/10/16 04:19:06;;;;;;;29.65;18.42;;;11.20;68.60;;;;;;4985059;28;20035;-51
2021/10/16 04:21:32;;;;;;;32.45;19.38;;;11.20;68.60;;;;;;4977659;28;20027;-51
2021/10/16 04:23:59;;;;;;;28.90;18.67;;;11.20;68.80;;;;;;4991017;28;20486;-51
2021/10/16 04:26:25;;;;;;;30.30;19.55;;;11.20;68.60;;;;;;4996628;28;20041;-51
2021/10/16 04:28:51;;;;;;;27.13;17.92;;;11.20;68.60;;;;;;4996694;28;20026;-52
2021/10/16 04:31:17;;;;;;;28.20;18.58;;;11.20;68.70;;;;;;4990073;28;20054;-51
2021/10/16 04:33:42;;;;;;;29.42;18.17;;;11.30;68.90;;;;;;4977457;28;20023;-51
2021/10/16 04:36:08;;;;;;;28.85;19.70;;;11.30;69.10;;;;;;4978063;28;20479;-52
2021/10/16 04:38:34;;;;;;;32.13;20.00;;;11.30;69.10;;;;;;4984213;28;20045;-55
2021/10/16 04:41:01;;;;;;;27.20;19.77;;;11.30;69.20;;;;;;4996470;28;20121;-51
2021/10/16 04:43:27;;;;;;;37.25;21.42;;;11.30;69.20;;;;;;4996360;28;20045;-51
2021/10/16 04:45:53;;;;;;;31.65;20.45;;;11.30;69.40;;;;;;4996348;28;20379;-51
2021/10/16 04:48:18;;;;;;;30.48;20.23;;;11.30;69.30;;;;;;4995802;28;20029;-51
2021/10/16 04:50:45;;;;;;;34.55;22.80;;;11.40;69.50;;;;;;4996208;28;20050;-54
2021/10/16 04:53:11;;;;;;;40.55;24.73;;;11.40;69.70;;;;;;4980523;28;20035;-51
2021/10/16 04:55:36;;;;;;;45.58;28.63;;;11.30;69.40;;;;;;4981923;28;20030;-51
2021/10/16 04:58:02;;;;;;;52.97;34.35;;;11.40;69.10;;;;;;4984852;28;20058;-51
2021/10/16 05:00:28;;;;;;;50.05;31.90;;;11.30;68.80;;;;;;4985442;28;20030;-52
2021/10/16 05:02:53;;;;;;;54.97;34.95;;;11.30;68.60;;;;;;4995414;28;20392;-51
2021/10/16 05:05:19;;;;;;;52.33;33.95;;;11.30;68.60;;;;;;4995285;28;20445;-51
2021/10/16 05:07:45;;;;;;;50.08;32.90;;;11.30;68.70;;;;;;4995370;28;20085;-51
2021/10/16 05:10:10;;;;;;;56.95;36.22;;;11.30;68.80;;;;;;4985409;28;20490;-51
2021/10/16 05:12:36;;;;;;;53.80;34.72;;;11.30;68.80;;;;;;4994982;28;20034;-51
2021/10/16 05:15:02;;;;;;;58.97;36.75;;;11.30;69.10;;;;;;4995589;28;20033;-52
2021/10/16 05:17:28;;;;;;;62.22;40.05;;;11.30;69.10;;;;;;4995059;28;20025;-51
2021/10/16 05:19:53;;;;;;;58.25;35.97;;;11.40;69.10;;;;;;4992556;28;20470;-51
2021/10/16 05:22:19;;;;;;;60.72;33.97;;;11.40;69.10;;;;;;4977282;28;20066;-51
2021/10/16 05:24:45;;;;;;;57.00;33.70;;;11.40;69.20;;;;;;4986015;28;20447;-51
2021/10/16 05:27:10;;;;;;;54.17;35.25;;;11.40;69.20;;;;;;4992910;28;20030;-51
2021/10/16 05:29:36;;;;;;;54.40;35.45;;;11.50;69.40;;;;;;4987127;28;20038;-52
2021/10/16 05:32:02;;;;;;;52.17;35.88;;;11.50;69.50;;;;;;4976869;28;20066;-51
2021/10/16 05:34:27;;;;;;;57.60;37.53;;;11.50;69.10;;;;;;4975949;28;20023;-51
2021/10/16 05:36:53;;;;;;;66.18;38.20;;;11.50;68.80;;;;;;4976847;28;20034;-51
2021/10/16 05:39:18;;;;;;;58.92;39.05;;;11.60;68.80;;;;;;4982051;28;20173;-51
2021/10/16 05:41:44;;;;;;;63.70;37.40;;;11.60;68.80;;;;;;4996259;28;20042;-51
2021/10/16 05:44:10;;;;;;;55.25;36.20;;;11.60;68.70;;;;;;5010544;28;20409;-51
2021/10/16 05:46:36;;;;;;;57.30;35.45;;;11.60;68.70;;;;;;5009074;28;20026;-51
2021/10/16 05:49:04;;;;;;;56.03;36.03;;;11.60;68.70;;;;;;5011447;28;20493;-51
2021/10/16 05:51:30;;;;;;;57.22;37.05;;;11.60;68.80;;;;;;5002027;28;20121;-51
2021/10/16 05:53:55;;;;;;;55.03;38.33;;;11.70;68.80;;;;;;5004024;28;20030;-51
2021/10/16 05:56:21;;;;;;;58.72;36.65;;;11.70;68.90;;;;;;5004626;28;20398;-52
2021/10/16 05:58:47;;;;;;;55.53;35.88;;;11.70;68.90;;;;;;5007717;28;20022;-51
2021/10/16 06:01:12;;;;;;;56.60;35.53;;;11.70;68.80;;;;;;5008135;28;20033;-51
2021/10/16 06:03:38;;;;;;;49.25;34.78;;;11.80;68.80;;;;;;5005248;28;20038;-51
2021/10/16 06:06:03;;;;;;;53.95;33.63;;;11.80;68.80;;;;;;5006377;28;20473;-51
2021/10/16 06:08:29;;;;;;;52.92;33.78;;;11.90;68.80;;;;;;5010517;28;20041;-51
2021/10/16 06:10:55;;;;;;;51.22;33.72;;;11.90;68.80;;;;;;5004990;28;20083;-52
2021/10/16 06:13:21;;;;;;;48.70;31.60;;;12.00;68.90;;;;;;5004572;28;20035;-51
2021/10/16 06:15:47;;;;;;;41.28;27.45;;;12.00;68.90;;;;;;5002914;28;20038;-51
2021/10/16 06:18:13;;;;;;;46.72;28.33;;;12.00;68.60;;;;;;5009916;28;20060;-51
2021/10/16 06:20:39;;;;;;;38.05;26.00;;;12.10;68.50;;;;;;5011945;28;20038;-51
2021/10/16 06:23:05;;;;;;;38.58;25.77;;;12.10;68.30;;;;;;5008966;28;20072;-51
2021/10/16 06:25:31;;;;;;;38.35;23.95;;;12.10;68.40;;;;;;5003163;28;20101;-51
2021/10/16 06:27:57;;;;;;;33.70;22.92;;;12.20;68.40;;;;;;5006557;28;20500;-51
2021/10/16 06:30:22;;;;;;;29.15;22.05;;;12.20;68.40;;;;;;4992973;28;20413;-51
2021/10/16 06:32:49;;;;;;;27.23;19.08;;;12.20;68.30;;;;;;5007443;28;20418;-51
2021/10/16 06:35:14;;;;;;;30.50;19.45;;;12.20;68.00;;;;;;5002781;28;20022;-51
2021/10/16 06:37:40;;;;;;;30.05;18.75;;;12.30;68.00;;;;;;4999773;28;20112;-53
2021/10/16 06:40:07;;;;;;;30.15;19.38;;;12.30;67.80;;;;;;4998207;28;20388;-54
2021/10/16 06:42:32;;;;;;;28.20;18.92;;;12.30;67.60;;;;;;4977005;28;20030;-51
2021/10/16 06:44:58;;;;;;;34.45;20.17;;;12.30;67.70;;;;;;4993993;28;20038;-53
2021/10/16 06:47:24;;;;;;;53.25;27.20;;;12.30;67.60;;;;;;4994253;28;20034;-52
2021/10/16 06:49:49;;;;;;;68.50;30.55;;;12.30;67.50;;;;;;4981402;28;20122;-51
2021/10/16 06:52:15;;;;;;;89.28;34.50;;;12.30;67.50;;;;;;4993376;28;20035;-52
2021/10/16 06:54:41;;;;;;;75.28;33.47;;;12.40;67.50;;;;;;4993636;28;20448;-51
2021/10/16 06:57:07;;;;;;;77.03;33.83;;;12.40;67.50;;;;;;4991869;28;20117;-51
2021/10/16 06:59:32;;;;;;;88.78;37.95;;;12.40;67.40;;;;;;4993490;28;20023;-51
2021/10/16 07:01:58;;;;;;;101.60;38.33;;;12.50;67.60;;;;;;4988148;28;20038;-51
2021/10/16 07:04:24;;;;;;;81.18;36.40;;;12.50;68.20;;;;;;4993293;28;20078;-53
2021/10/16 07:06:49;;;;;;;86.28;35.00;;;12.50;67.60;;;;;;4993555;28;20465;-51
2021/10/16 07:09:15;;;;;;;84.38;34.33;;;12.50;67.50;;;;;;4993070;28;20030;-51
2021/10/16 07:11:43;;;;;;;53.50;29.45;;;12.60;67.70;;;;;;4993617;28;20038;-51
2021/10/16 07:14:09;;;;;;;50.45;27.75;;;12.60;67.80;;;;;;4993239;28;20027;-51
2021/10/16 07:16:35;;;;;;;57.75;29.88;;;12.60;67.80;;;;;;4993176;28;20029;-51
2021/10/16 07:19:01;;;;;;;57.85;33.72;;;12.60;67.70;;;;;;4993117;28;20022;-52
2021/10/16 07:21:27;;;;;;;61.17;33.58;;;12.60;67.70;;;;;;4993019;28;20045;-52
2021/10/16 07:23:53;;;;;;;63.42;35.80;;;12.60;67.70;;;;;;4993707;28;20030;-51
2021/10/16 07:26:18;;;;;;;63.08;35.83;;;12.60;67.60;;;;;;4986150;28;20023;-51
2021/10/16 07:28:44;;;;;;;63.75;35.47;;;12.60;67.50;;;;;;4973433;28;20031;-51
2021/10/16 07:31:11;;;;;;;59.13;35.63;;;12.50;67.40;;;;;;4972976;28;20089;-52
2021/10/16 07:33:36;;;;;;;58.50;37.17;;;12.50;67.60;;;;;;4973862;28;20027;-51
2021/10/16 07:36:02;;;;;;;56.08;32.75;;;12.40;67.60;;;;;;4973847;28;20041;-52
2021/10/16 07:38:28;;;;;;;63.58;35.38;;;12.30;67.60;;;;;;4973785;28;20023;-51
2021/10/16 07:40:54;;;;;;;58.30;36.70;;;12.30;67.80;;;;;;4972902;28;20114;-51
2021/10/16 07:43:19;;;;;;;59.03;35.83;;;12.30;68.00;;;;;;4973505;28;20031;-51
2021/10/16 07:45:45;;;;;;;61.60;39.17;;;12.20;68.10;;;;;;4973819;28;20038;-51
2021/10/16 07:48:10;;;;;;;63.70;37.95;;;12.20;68.20;;;;;;4973743;28;20033;-51
2021/10/16 07:50:36;;;;;;;58.47;37.88;;;12.20;68.40;;;;;;4973802;28;20031;-51
2021/10/16 07:53:03;;;;;;;60.58;38.40;;;12.10;68.50;;;;;;4974912;28;20567;-51
2021/10/16 07:55:30;;;;;;;55.22;35.45;;;12.10;68.80;;;;;;4982370;28;20058;-51
2021/10/16 07:57:55;;;;;;;53.40;33.17;;;12.10;68.90;;;;;;4996517;28;20033;-51
2021/10/16 08:00:21;;;;;;;48.05;30.20;;;12.10;69.10;;;;;;4981254;28;20467;-52
2021/10/16 08:02:46;;;;;;;43.30;30.08;;;12.00;69.30;;;;;;4977116;28;20483;-51
2021/10/16 08:05:14;;;;;;;46.90;30.67;;;12.10;69.50;;;;;;4977301;28;20027;-51
2021/10/16 08:07:44;;;;;;;50.55;31.42;;;12.10;69.70;;;;;;4977242;28;20505;-51
2021/10/16 08:10:10;;;;;;;50.60;33.42;;;12.20;69.80;;;;;;4976726;28;20375;-51
2021/10/16 08:12:37;;;;;;;49.25;31.48;;;12.30;70.00;;;;;;4994290;28;20022;-53
2021/10/16 08:15:07;;;;;;;48.33;32.58;;;12.30;70.00;;;;;;4996271;28;20033;-51
2021/10/16 08:17:33;;;;;;;41.15;28.13;;;12.40;70.10;;;;;;4979608;28;20027;-51
2021/10/16 08:19:58;;;;;;;43.40;28.27;;;12.50;70.00;;;;;;4994817;28;20041;-52
2021/10/16 08:22:24;;;;;;;41.85;28.27;;;12.50;69.90;;;;;;4996128;28;20089;-51
2021/10/16 08:24:50;;;;;;;41.47;26.00;;;12.60;69.80;;;;;;4995893;28;20041;-51
2021/10/16 08:27:16;;;;;;;38.92;26.40;;;12.70;69.80;;;;;;4996428;28;20030;-51
2021/10/16 08:29:41;;;;;;;43.83;27.15;;;12.70;69.80;;;;;;4996044;28;20445;-51
2021/10/16 08:32:07;;;;;;;38.35;25.80;;;12.80;69.80;;;;;;4996249;28;20077;-52
2021/10/16 08:34:33;;;;;;;45.28;28.35;;;12.80;69.60;;;;;;4978922;28;20026;-51
2021/10/16 08:36:59;;;;;;;43.50;26.27;;;12.90;69.60;;;;;;4994769;28;20035;-52
2021/10/16 08:39:26;;;;;;;36.80;23.75;;;12.90;69.60;;;;;;4995604;28;20054;-51
2021/10/16 08:41:52;;;;;;;33.22;22.60;;;13.00;69.50;;;;;;4996076;28;20034;-51
2021/10/16 08:44:18;;;;;;;33.70;21.63;;;13.00;69.20;;;;;;4996047;28;20478;-51
2021/10/16 08:46:44;;;;;;;32.10;20.80;;;13.10;69.30;;;;;;4995754;28;20037;-51
2021/10/16 08:49:14;;;;;;;27.17;19.42;;;13.10;69.20;;;;;;4995755;28;20041;-52
2021/10/16 08:51:41;;;;;;;28.60;19.58;;;13.10;69.00;;;;;;4976223;28;20031;-51
2021/10/16 08:54:07;;;;;;;26.65;18.55;;;13.20;69.00;;;;;;4978252;28;20034;-52
2021/10/16 08:56:33;;;;;;;25.65;17.75;;;13.30;68.80;;;;;;4995630;28;20392;-53
2021/10/16 08:58:58;;;;;;;27.08;18.70;;;13.30;68.70;;;;;;4995504;28;20033;-51
2021/10/16 09:01:24;;;;;;;23.65;16.50;;;13.40;68.70;;;;;;4992408;28;20022;-51
2021/10/16 09:03:50;;;;;;;20.77;16.17;;;13.40;68.70;;;;;;4995300;28;20475;-51
2021/10/16 09:06:27;;;;;;;22.60;15.10;;;13.50;68.80;;;;;;4995409;28;20038;-52
2021/10/16 09:08:55;;;;;;;21.52;15.85;;;13.50;68.90;;;;;;4977572;28;20035;-51
2021/10/16 09:11:39;;;;;;;22.55;16.73;;;13.60;68.80;;;;;;4983635;28;20030;-52
2021/10/16 09:14:10;;;;;;;19.90;15.00;;;13.60;68.80;;;;;;4995579;28;20054;-52
2021/10/16 09:16:36;;;;;;;17.73;14.07;;;13.70;68.70;;;;;;4995252;28;20105;-55
2021/10/16 09:19:05;;;;;;;22.05;17.15;;;13.70;68.50;;;;;;4995058;28;20035;-51
2021/10/16 09:21:32;;;;;;;26.85;19.13;;;13.70;68.20;;;;;;4995375;28;20030;-52
2021/10/16 09:24:14;;;;;;;29.88;21.75;;;13.70;68.60;;;;;;4994403;28;20077;-51
2021/10/16 09:26:43;;;;;;;31.95;23.17;;;13.70;68.70;;;;;;4995308;28;20474;-53
2021/10/16 09:29:11;;;;;;;29.70;21.92;;;13.70;68.80;;;;;;4995297;28;20184;-51
2021/10/16 09:31:39;;;;;;;31.17;21.52;;;13.70;68.90;;;;;;4990817;28;20057;-53
2021/10/16 09:34:06;;;;;;;33.90;23.25;;;13.80;69.10;;;;;;4995139;28;20398;-51
2021/10/16 09:36:32;;;;;;;36.08;23.85;;;13.70;69.20;;;;;;4995026;28;20033;-51
2021/10/16 09:38:59;;;;;;;35.88;25.50;;;13.80;69.50;;;;;;4994766;28;20046;-51
2021/10/16 09:41:26;;;;;;;34.20;24.40;;;13.80;69.60;;;;;;4978744;28;20077;-52
2021/10/16 09:43:51;;;;;;;34.65;24.98;;;13.80;69.60;;;;;;4975154;28;20081;-51
2021/10/16 09:46:19;;;;;;;31.10;21.75;;;13.90;69.80;;;;;;4975484;28;20030;-51
2021/10/16 09:48:46;;;;;;;31.75;22.23;;;13.90;69.80;;;;;;4975203;28;20098;-51
2021/10/16 09:51:14;;;;;;;30.48;21.23;;;13.90;69.60;;;;;;4975008;28;20026;-51
2021/10/16 09:54:01;;;;;;;36.33;23.42;;;13.90;69.50;;;;;;4975555;28;20027;-51
2021/10/16 09:56:27;;;;;;;38.20;24.70;;;14.00;69.60;;;;;;4987569;28;20085;-51
2021/10/16 09:58:52;;;;;;;33.92;23.95;;;14.00;69.50;;;;;;4975256;28;20483;-51
2021/10/16 10:01:19;;;;;;;37.63;24.08;;;14.10;69.40;;;;;;4974977;28;20035;-51
2021/10/16 10:03:45;;;;;;;33.90;21.80;;;14.10;69.40;;;;;;4974939;28;20023;-51
2021/10/16 10:06:16;;;;;;;32.40;23.27;;;14.10;69.40;;;;;;4974718;28;20073;-51
2021/10/16 10:08:41;;;;;;;32.92;23.10;;;14.20;69.30;;;;;;4974749;28;20023;-51
2021/10/16 10:11:07;;;;;;;30.30;21.35;;;14.10;69.10;;;;;;4977492;28;20034;-51
2021/10/16 10:13:35;;;;;;;31.25;23.00;;;14.20;69.10;;;;;;4974768;28;20077;-51
2021/10/16 10:16:00;;;;;;;30.42;21.80;;;14.20;69.00;;;;;;4974141;28;20027;-52
2021/10/16 10:21:11;;;;;;;35.75;24.75;;;14.30;69.10;;;;;;4975226;28;20507;-51
2021/10/16 10:23:52;;;;;;;32.47;22.10;;;14.40;69.10;;;;;;4977029;28;20043;-51
2021/10/16 10:26:34;;;;;;;33.47;22.15;;;14.40;69.00;;;;;;4994363;28;20364;-51
2021/10/16 10:29:02;;;;;;;36.97;23.20;;;14.40;68.90;;;;;;4993578;28;20030;-51
2021/10/16 10:31:45;;;;;;;34.05;22.58;;;14.50;68.90;;;;;;4994123;28;20455;-51
2021/10/16 10:34:13;;;;;;;31.80;23.23;;;14.50;68.70;;;;;;4993940;28;20037;-52
2021/10/16 10:36:51;;;;;;;32.10;21.85;;;14.60;68.70;;;;;;4993874;28;20485;-51
2021/10/16 10:39:32;;;;;;;32.88;21.67;;;14.60;68.60;;;;;;4993660;28;20042;-51
2021/10/16 10:42:13;;;;;;;29.67;19.95;;;14.60;68.50;;;;;;4994065;28;20113;-51
2021/10/16 10:44:49;;;;;;;30.50;21.97;;;14.60;69.10;;;;;;4993524;28;20030;-51
2021/10/16 10:47:29;;;;;;;29.85;21.40;;;14.50;68.40;;;;;;4993994;28;20264;-51
2021/10/16 10:49:59;;;;;;;29.63;18.80;;;14.50;68.50;;;;;;4994393;28;20030;-51
2021/10/16 10:52:28;;;;;;;24.00;18.15;;;14.50;68.70;;;;;;4993894;28;20109;-52
2021/10/16 10:55:04;;;;;;;23.20;17.83;;;14.50;68.70;;;;;;4993672;28;20061;-51
2021/10/16 10:57:45;;;;;;;27.23;18.48;;;14.40;68.70;;;;;;4993665;28;20027;-51
2021/10/16 11:00:13;;;;;;;26.17;17.80;;;14.40;68.70;;;;;;4993944;28;20501;-51
2021/10/16 11:02:40;;;;;;;22.77;17.55;;;14.40;68.60;;;;;;4984905;28;20054;-51
2021/10/16 11:05:35;;;;;;;27.73;18.38;;;14.40;68.70;;;;;;4993678;28;20022;-51
2021/10/16 11:08:13;;;;;;;27.20;17.30;;;14.40;68.60;;;;;;4993962;28;20190;-51
2021/10/16 11:10:40;;;;;;;24.52;16.20;;;14.40;68.60;;;;;;4993508;28;20110;-51
2021/10/16 11:13:18;;;;;;;23.83;16.63;;;14.40;68.70;;;;;;4993559;28;20403;-51
2021/10/16 11:15:54;;;;;;;24.17;17.17;;;14.40;68.70;;;;;;4993420;28;20022;-51
2021/10/16 11:18:20;;;;;;;23.70;17.77;;;14.40;68.70;;;;;;4993528;28;20534;-51
2021/10/16 11:20:46;;;;;;;25.35;17.95;;;14.40;68.70;;;;;;4980401;28;20162;-51
2021/10/16 11:23:24;;;;;;;24.17;17.40;;;14.40;68.70;;;;;;4975134;28;20027;-51
2021/10/16 11:25:55;;;;;;;22.23;16.73;;;14.40;68.60;;;;;;4993635;28;20026;-51
2021/10/16 11:28:22;;;;;;;25.17;16.42;;;14.40;68.60;;;;;;4996730;28;20034;-51
2021/10/16 11:30:49;;;;;;;24.45;16.80;;;14.40;68.70;;;;;;4997187;28;20026;-51
2021/10/16 11:33:17;;;;;;;22.85;16.73;;;14.40;68.80;;;;;;4980944;28;20122;-51
2021/10/16 11:35:46;;;;;;;21.27;16.58;;;14.40;68.80;;;;;;4977660;28;20034;-51
2021/10/16 11:38:14;;;;;;;22.33;16.77;;;14.40;68.60;;;;;;4994610;28;20356;-51
2021/10/16 11:40:40;;;;;;;25.50;17.50;;;14.40;68.50;;;;;;4996806;28;20495;-51
2021/10/16 11:43:17;;;;;;;22.83;16.40;;;14.40;68.40;;;;;;4997172;28;20089;-51
2021/10/16 11:45:45;;;;;;;21.55;15.10;;;14.40;68.60;;;;;;4996915;28;20113;-51
2021/10/16 11:48:13;;;;;;;22.65;15.65;;;14.40;68.40;;;;;;4997002;28;20046;-51
2021/10/16 11:50:44;;;;;;;25.92;16.33;;;14.40;68.30;;;;;;4997070;28;20386;-51
2021/10/16 11:53:24;;;;;;;19.38;14.98;;;14.40;68.30;;;;;;4996486;28;20031;-51
2021/10/16 11:55:59;;;;;;;20.92;15.10;;;14.40;68.30;;;;;;4979281;28;20051;-51
2021/10/16 11:58:28;;;;;;;24.15;15.35;;;14.40;68.30;;;;;;4977513;28;20102;-54
2021/10/16 12:00:59;;;;;;;20.02;14.95;;;14.40;68.50;;;;;;4977506;28;20445;-51
2021/10/16 12:03:25;;;;;;;;;;;14.40;68.40;;;;;;4977833;28;20479;-51
2021/10/16 12:05:55;;;;;;;17.48;13.23;;;14.30;68.30;;;;;;4977099;28;19906;-51
2021/10/16 12:08:29;;;;;;;21.42;14.68;;;14.40;68.40;;;;;;4977402;28;20073;-51
2021/10/16 12:11:04;;;;;;;19.33;14.18;;;14.30;68.30;;;;;;4981234;28;20031;-51
2021/10/16 12:13:38;;;;;;;20.35;15.38;;;14.30;68.40;;;;;;4996004;28;20038;-51
2021/10/16 12:16:17;;;;;;;19.20;14.60;;;14.30;68.40;;;;;;4993961;28;20030;-51
2021/10/16 12:18:57;;;;;;;20.90;14.10;;;14.30;68.40;;;;;;4996589;28;20121;-51
2021/10/16 12:21:35;;;;;;;22.38;15.82;;;14.30;68.30;;;;;;4996483;28;20027;-51
2021/10/16 12:24:12;;;;;;;23.23;16.00;;;14.30;68.40;;;;;;4996221;28;20065;-51
2021/10/16 12:26:39;;;;;;;19.67;15.30;;;14.30;68.30;;;;;;4994150;28;20034;-51
2021/10/16 12:29:10;;;;;;;20.75;15.68;;;14.30;68.30;;;;;;4976915;28;20027;-52
2021/10/16 12:32:09;;;;;;;18.67;14.50;;;14.30;68.30;;;;;;4976577;28;20041;-51
2021/10/16 12:34:39;;;;;;;20.40;15.65;;;14.30;68.20;;;;;;4976486;28;20027;-51